Time;durP1;ratioP1;P1;durP2;ratioP2;P2;SDS_P1;SDS_P2;PMS_P1;PMS_P2;Temp;Humidity;BMP_temperature;BMP_pressure;BME280_temperature;BME280_humidity;BME280_pressure;Samples;Min_cycle;Max_cycle;Signal;HPM_P1;HPM_P2
2022/08/30 00:02:59;;;;;;;;;;;22.30;68.10;;;21.72;62.77;96390.03;4216048;33;19902;-85
2022/08/30 00:05:28;;;;;;;;;;;22.30;68.20;;;21.72;62.83;96386.44;4215766;33;19908;-85
2022/08/30 00:07:56;;;;;;;;;;;22.30;68.30;;;21.72;62.58;96395.63;4216021;33;19908;-85
2022/08/30 00:10:25;;;;;;;;;;;22.30;68.20;;;21.71;62.33;96382.84;4216146;33;19902;-85
2022/08/30 00:13:46;;;;;;;;;;;22.30;68.10;;;21.70;62.55;96375.63;4253634;33;20044;-85
2022/08/30 00:16:15;;;;;;;;;;;22.20;67.90;;;21.69;62.61;96379.56;4187724;33;20131;-85
2022/08/30 00:19:37;;;;;;;;;;;22.30;68.00;;;21.70;62.39;96385.94;4188331;33;19909;-86
2022/08/30 00:22:06;;;;;;;;;;;22.30;67.90;;;21.68;62.37;96383.50;4194911;33;19902;-85
2022/08/30 00:24:34;;;;;;;;;;;22.30;68.00;;;21.68;62.27;96383.50;4188210;33;20059;-85
2022/08/30 00:27:03;;;;;;;;;;;22.20;67.90;;;21.69;62.39;96385.16;4211619;33;19903;-85
2022/08/30 00:29:31;;;;;;;;;;;22.20;67.90;;;21.69;62.60;96381.53;4190833;33;20052;-85
2022/08/30 00:32:20;;;;;;;;;;;22.30;68.40;;;21.69;62.81;96390.72;4190758;33;20370;-85
2022/08/30 00:34:50;;;;;;;;;;;22.30;68.40;;;21.67;62.71;96381.88;4190747;33;19902;-85
2022/08/30 00:37:18;;;;;;;;;;;22.20;68.20;;;21.68;62.76;96379.91;4190009;33;20144;-85
2022/08/30 00:39:47;;;;;;;;;;;22.30;68.40;;;21.67;62.77;96390.22;4190844;33;19902;-85
2022/08/30 00:42:16;;;;;;;;;;;22.20;68.20;;;21.67;62.41;96390.22;4190005;33;19910;-85
2022/08/30 00:44:45;;;;;;;;;;;22.30;68.10;;;21.67;62.52;96387.44;4190387;33;19913;-86
2022/08/30 00:47:13;;;;;;;;;;;22.30;68.90;;;21.68;62.54;96393.84;4189882;33;20008;-85
2022/08/30 00:49:43;;;;;;;;;;;22.30;68.20;;;21.66;62.77;96385.00;4213440;33;20221;-86
2022/08/30 00:52:13;;;;;;;;;;;22.20;68.10;;;21.65;62.48;96384.19;4190142;33;19969;-86
2022/08/30 00:54:43;;;;;;;;;;;22.20;68.10;;;21.66;62.54;96393.38;4190034;33;20066;-85
2022/08/30 00:57:12;;;;;;;;;;;22.20;68.00;;;21.64;62.61;96379.75;4189859;33;19917;-85
2022/08/30 00:59:40;;;;;;;;;;;22.20;68.10;;;21.65;62.50;96388.94;4213399;33;20078;-85
2022/08/30 01:02:09;;;;;;;;;;;22.20;68.10;;;21.65;62.65;96378.59;4213404;33;19909;-85
2022/08/30 01:04:39;;;;;;;;;;;22.20;68.20;;;21.64;62.74;96379.75;4213449;33;20058;-85
2022/08/30 01:07:08;;;;;;;;;;;22.20;68.20;;;21.63;62.77;96380.91;4212973;33;19909;-85
2022/08/30 01:09:37;;;;;;;;;;;22.20;68.20;;;21.64;62.77;96393.69;4190170;33;19970;-85
2022/08/30 01:12:07;;;;;;;;;;;22.20;68.20;;;21.65;62.71;96386.97;4190063;33;20083;-85
2022/08/30 01:14:35;;;;;;;;;;;22.20;68.20;;;21.64;62.60;96381.75;4190092;33;19910;-85
2022/08/30 01:17:04;;;;;;;;;;;22.20;68.10;;;21.64;62.64;96390.91;4189414;33;20003;-85
2022/08/30 01:19:36;;;;;;;;;;;22.20;68.20;;;21.62;62.59;96384.88;4190187;33;20136;-85
2022/08/30 01:22:12;;;;;;;;;;;22.20;68.20;;;21.63;62.92;96383.69;4189919;33;19902;-85
2022/08/30 01:24:42;;;;;;;;;;;22.20;68.50;;;21.63;62.74;96378.13;4189935;33;20137;-85
2022/08/30 01:27:10;;;;;;;;;;;22.20;68.40;;;21.63;62.89;96380.09;4212678;33;19913;-85
2022/08/30 01:29:39;;;;;;;;;;;22.20;68.40;;;21.61;62.56;96381.25;4213258;33;19910;-85
2022/08/30 01:32:08;;;;;;;;;;;22.20;68.40;;;21.61;62.97;96377.66;4190030;33;19902;-85
2022/08/30 01:34:37;;;;;;;;;;;22.20;68.60;;;21.60;62.67;96382.41;4217123;33;20193;-85
2022/08/30 01:37:06;;;;;;;;;;;22.20;68.40;;;21.61;62.79;96377.66;4240545;33;19902;-85
2022/08/30 01:39:34;;;;;;;;;;;22.20;68.20;;;21.60;62.33;96384.41;4236145;33;19981;-85
2022/08/30 01:42:04;;;;;;;;;;;22.20;68.00;;;21.59;62.60;96374.38;4189819;33;19902;-85
2022/08/30 01:44:33;;;;;;;;;;;22.20;68.20;;;21.61;62.77;96377.66;4189429;33;20105;-84
2022/08/30 01:47:01;;;;;;;;;;;22.20;68.30;;;21.59;62.75;96380.78;4212205;33;20221;-84
2022/08/30 01:49:30;;;;;;;;;;;22.20;68.20;;;21.58;62.95;96379.13;4189590;33;20012;-83
2022/08/30 01:51:59;;;;;;;;;;;22.20;68.20;;;21.61;62.69;96388.81;4189813;33;19902;-84
2022/08/30 01:54:27;;;;;;;;;;;22.20;68.30;;;21.59;62.68;96382.72;4189541;33;20448;-84
2022/08/30 01:56:56;;;;;;;;;;;22.20;68.20;;;21.59;62.66;96379.94;4212103;33;19909;-84
2022/08/30 01:59:26;;;;;;;;;;;22.20;68.20;;;21.58;62.53;96384.69;4189330;33;20113;-84
2022/08/30 02:01:55;;;;;;;;;;;22.20;68.20;;;21.59;62.68;96379.94;4212522;33;19902;-85
2022/08/30 02:04:25;;;;;;;;;;;22.20;68.20;;;21.57;62.78;96369.13;4231684;33;19902;-85
2022/08/30 02:06:54;;;;;;;;;;;22.20;68.20;;;21.58;62.44;96375.53;4240462;33;19902;-85
2022/08/30 02:09:22;;;;;;;;;;;22.20;68.30;;;21.58;62.47;96375.53;4217181;33;19967;-85
2022/08/30 02:11:51;;;;;;;;;;;22.20;68.10;;;21.58;62.46;96372.75;4240839;33;20040;-85
2022/08/30 02:14:19;;;;;;;;;;;22.20;68.10;;;21.56;62.86;96375.84;4240098;33;20098;-85
2022/08/30 02:16:49;;;;;;;;;;;22.20;68.10;;;21.56;62.58;96380.63;4216036;33;20019;-85
2022/08/30 02:19:18;;;;;;;;;;;22.20;68.10;;;21.56;62.27;96381.41;4217148;33;19902;-84
2022/08/30 02:21:46;;;;;;;;;;;22.10;68.10;;;21.56;62.40;96387.00;4217288;33;20059;-85
2022/08/30 02:24:15;;;;;;;;;;;22.10;68.10;;;21.56;62.45;96384.19;4217275;33;19910;-84
2022/08/30 02:26:44;;;;;;;;;;;22.20;68.10;;;21.56;62.42;96386.19;4216702;33;20140;-85
2022/08/30 02:29:12;;;;;;;;;;;22.10;68.00;;;21.55;62.72;96378.97;4216876;33;20042;-85
2022/08/30 02:31:41;;;;;;;;;;;22.20;68.00;;;21.55;62.35;96388.16;4216966;33;19902;-85
2022/08/30 02:34:11;;;;;;;;;;;22.10;68.10;;;21.55;62.32;96390.13;4240440;33;20157;-84
2022/08/30 02:36:40;;;;;;;;;;;22.10;68.00;;;21.55;62.45;96392.91;4239979;33;19908;-85
2022/08/30 02:39:09;;;;;;;;;;;22.20;68.10;;;21.55;62.72;96395.69;4240062;33;19909;-85
2022/08/30 02:41:38;;;;;;;;;;;22.10;68.20;;;21.54;62.29;96397.69;4264080;33;20102;-85
2022/08/30 02:44:06;;;;;;;;;;;22.10;68.10;;;21.52;62.43;96391.63;4216853;33;19956;-85
2022/08/30 02:46:35;;;;;;;;;;;22.10;68.20;;;21.53;62.55;96409.97;4239911;33;19902;-85
2022/08/30 02:49:04;;;;;;;;;;;22.10;68.20;;;21.54;62.76;96405.19;4239666;33;19902;-84
2022/08/30 02:51:34;;;;;;;;;;;22.10;68.10;;;21.53;62.80;96404.41;4240257;33;19906;-84
2022/08/30 02:54:03;;;;;;;;;;;22.10;68.30;;;21.51;62.46;96401.13;4240306;33;20113;-85
2022/08/30 02:56:31;;;;;;;;;;;22.10;68.20;;;21.52;62.72;96397.19;4239830;33;19902;-84
2022/08/30 02:59:20;;;;;;;;;;;22.10;68.20;;;21.52;62.65;96399.16;4216753;33;19991;-85
2022/08/30 03:01:48;;;;;;;;;;;22.10;68.20;;;21.52;62.51;96404.72;4240096;33;20157;-85
2022/08/30 03:04:17;;;;;;;;;;;22.10;68.10;;;21.52;62.40;96407.50;4216689;33;20039;-85
2022/08/30 03:06:47;;;;;;;;;;;22.10;68.10;;;21.51;62.55;96405.88;4216198;33;19944;-84
2022/08/30 03:09:16;;;;;;;;;;;22.10;68.00;;;21.51;62.38;96406.69;4216384;33;19906;-84
2022/08/30 03:11:44;;;;;;;;;;;22.10;68.10;;;21.51;62.63;96400.28;4216311;33;19981;-84
2022/08/30 03:14:13;;;;;;;;;;;22.10;68.20;;;21.51;62.36;96408.66;4239976;33;20120;-85
2022/08/30 03:16:41;;;;;;;;;;;22.10;68.00;;;21.50;62.55;96412.59;4216134;33;20113;-85
2022/08/30 03:19:10;;;;;;;;;;;22.10;68.10;;;21.50;62.45;96421.78;4216166;33;20091;-85
2022/08/30 03:21:39;;;;;;;;;;;22.10;68.10;;;21.49;62.57;96422.13;4240081;33;19910;-84
2022/08/30 03:24:09;;;;;;;;;;;22.10;68.10;;;21.49;62.58;96419.34;4216609;33;19985;-84
2022/08/30 03:26:37;;;;;;;;;;;22.10;68.00;;;21.49;62.53;96430.47;4215813;33;20235;-84
2022/08/30 03:29:06;;;;;;;;;;;22.10;68.10;;;21.48;62.62;96420.50;4239632;33;19901;-85
2022/08/30 03:31:35;;;;;;;;;;;22.10;68.10;;;21.47;62.47;96430.81;4215954;33;20109;-84
2022/08/30 03:34:04;;;;;;;;;;;22.10;68.00;;;21.46;62.45;96427.22;4216281;33;19988;-84
2022/08/30 03:36:33;;;;;;;;;;;22.10;68.10;;;21.48;62.69;96423.28;4263989;33;19979;-84
2022/08/30 03:39:01;;;;;;;;;;;22.10;68.00;;;21.47;62.56;96422.44;4239591;33;19909;-85
2022/08/30 03:41:32;;;;;;;;;;;22.10;68.00;;;21.46;62.58;96430.00;4215949;33;19909;-85
2022/08/30 03:44:00;;;;;;;;;;;22.10;68.00;;;21.47;62.58;96439.16;4239504;33;20225;-84
2022/08/30 03:46:29;;;;;;;;;;;22.00;68.00;;;21.47;62.57;96439.16;4215666;33;20128;-84
2022/08/30 03:48:58;;;;;;;;;;;22.10;68.10;;;21.47;62.86;96444.72;4239443;33;20033;-84
2022/08/30 03:51:26;;;;;;;;;;;22.00;68.00;;;21.45;62.56;96442.28;4216008;33;19906;-85
2022/08/30 03:53:55;;;;;;;;;;;22.00;68.00;;;21.45;62.63;96442.28;4215983;33;19909;-84
2022/08/30 03:56:23;;;;;;;;;;;22.10;68.10;;;21.44;62.66;96446.22;4239146;33;20251;-85
2022/08/30 03:58:53;;;;;;;;;;;22.00;68.00;;;21.44;62.34;96442.59;4239535;33;20110;-84
2022/08/30 04:01:22;;;;;;;;;;;22.00;68.00;;;21.46;62.64;96448.66;4215760;33;19952;-85
2022/08/30 04:03:50;;;;;;;;;;;22.00;68.00;;;21.45;62.48;96453.44;4215605;33;19902;-85
2022/08/30 04:06:19;;;;;;;;;;;22.00;68.00;;;21.44;62.36;96451.78;4234046;33;19902;-85
2022/08/30 04:08:47;;;;;;;;;;;22.00;68.10;;;21.44;62.69;96440.66;4187844;33;19944;-85
2022/08/30 04:11:16;;;;;;;;;;;22.10;68.20;;;21.43;62.72;96433.44;4188017;33;20037;-85
2022/08/30 04:13:45;;;;;;;;;;;22.00;68.00;;;21.44;62.41;96446.22;4210991;33;19909;-85
2022/08/30 04:16:16;;;;;;;;;;;22.00;68.00;;;21.44;62.57;96443.44;4187543;33;20133;-85
2022/08/30 04:18:44;;;;;;;;;;;22.00;68.00;;;21.45;62.56;96441.44;4210742;33;19903;-85
2022/08/30 04:21:13;;;;;;;;;;;22.00;68.00;;;21.45;62.79;96447.03;4210173;33;19998;-85
2022/08/30 04:23:41;;;;;;;;;;;22.00;68.00;;;21.42;62.35;96442.94;4186748;33;19903;-85
2022/08/30 04:26:10;;;;;;;;;;;22.00;68.10;;;21.43;62.73;96452.09;4232641;33;19908;-85
2022/08/30 04:28:39;;;;;;;;;;;22.00;68.00;;;21.44;62.79;96456.53;4186682;33;20045;-85
2022/08/30 04:31:10;;;;;;;;;;;22.00;68.00;;;21.43;62.50;96452.94;4209784;33;20143;-86
2022/08/30 04:33:41;;;;;;;;;;;22.00;68.00;;;21.43;62.48;96450.16;4186542;33;19902;-85
2022/08/30 04:36:10;;;;;;;;;;;22.00;68.00;;;21.44;62.67;96448.19;4186195;33;19902;-85
2022/08/30 04:38:38;;;;;;;;;;;22.00;68.20;;;21.44;62.49;96450.97;4186680;33;20019;-85
2022/08/30 04:41:10;;;;;;;;;;;22.00;68.10;;;21.43;62.46;96449.31;4186290;33;19977;-86
2022/08/30 04:43:39;;;;;;;;;;;22.00;68.20;;;21.44;62.78;96450.97;4186626;33;19909;-86
2022/08/30 04:46:08;;;;;;;;;;;22.00;68.10;;;21.42;62.53;96445.75;4208984;33;20160;-85
2022/08/30 04:48:37;;;;;;;;;;;22.00;68.20;;;21.42;62.54;96454.09;4209753;33;20172;-85
2022/08/30 04:51:08;;;;;;;;;;;22.00;68.00;;;21.44;62.56;96456.53;4192923;33;20123;-85
2022/08/30 04:53:37;;;;;;;;;;;22.10;68.20;;;21.44;62.49;96457.38;4214108;33;19902;-85
2022/08/30 04:56:08;;;;;;;;;;;22.10;68.20;;;21.44;62.42;96454.56;4213750;33;19902;-85
2022/08/30 04:58:36;;;;;;;;;;;22.00;67.90;;;21.44;62.53;96457.38;4237875;33;20173;-85
2022/08/30 05:01:05;;;;;;;;;;;22.10;69.00;;;21.45;62.38;96463.75;4214111;33;20116;-86
2022/08/30 05:03:34;;;;;;;;;;;22.10;68.00;;;21.44;62.44;96457.38;4214169;33;19901;-86
2022/08/30 05:06:02;;;;;;;;;;;22.00;67.90;;;21.44;62.34;96465.72;4213421;33;20036;-85
2022/08/30 05:08:32;;;;;;;;;;;22.00;67.80;;;21.44;62.47;96468.50;4237768;33;20165;-85
2022/08/30 05:11:04;;;;;;;;;;;22.00;67.80;;;21.45;62.74;96460.94;4213868;33;20212;-85
2022/08/30 05:13:32;;;;;;;;;;;22.10;67.90;;;21.44;62.12;96468.50;4239144;33;20104;-86
2022/08/30 05:16:01;;;;;;;;;;;22.10;68.00;;;21.44;62.25;96470.47;4239432;33;20559;-85
2022/08/30 05:18:30;;;;;;;;;;;22.00;67.90;;;21.45;62.56;96470.13;4239848;33;19979;-85
2022/08/30 05:21:07;;;;;;;;;;;22.00;67.80;;;21.46;62.49;96471.78;4263840;33;19902;-85
2022/08/30 05:23:37;;;;;;;;;;;22.10;68.00;;;21.45;62.55;96470.13;4211796;33;20048;-86
2022/08/30 05:26:06;;;;;;;;;;;22.10;67.90;;;21.47;62.42;96475.38;4211184;33;20042;-85
2022/08/30 05:28:35;;;;;;;;;;;22.10;68.00;;;21.48;62.57;96473.41;4188420;33;19911;-86
2022/08/30 05:31:03;;;;;;;;;;;22.10;68.00;;;21.49;62.61;96486.19;4188505;33;20012;-86
2022/08/30 05:33:32;;;;;;;;;;;22.10;68.10;;;21.49;62.53;96486.19;4215017;33;19921;-85
2022/08/30 05:36:01;;;;;;;;;;;22.10;68.10;;;21.50;62.67;96482.22;4215913;33;19901;-86
2022/08/30 05:38:29;;;;;;;;;;;22.10;68.00;;;21.49;62.50;96486.19;4239799;33;19902;-85
2022/08/30 05:40:59;;;;;;;;;;;22.10;68.00;;;21.50;62.39;96488.63;4216446;33;20080;-86
2022/08/30 05:43:28;;;;;;;;;;;22.10;67.90;;;21.52;62.50;96479.94;4239764;33;19908;-85
2022/08/30 05:46:00;;;;;;;;;;;22.10;67.80;;;21.53;62.26;96481.56;4239069;33;19915;-85
2022/08/30 05:48:29;;;;;;;;;;;22.10;68.00;;;21.56;62.70;96480.91;4216251;33;19902;-86
2022/08/30 05:51:06;;;;;;;;;;;22.20;68.10;;;21.60;62.33;96479.91;4239735;33;20136;-85
2022/08/30 05:53:34;;;;;;;;;;;22.20;68.80;;;21.62;62.56;96474.03;4216051;33;19909;-85
2022/08/30 05:56:06;;;;;;;;;;;22.20;68.20;;;21.64;63.11;96474.47;4239182;33;20121;-85
2022/08/30 05:58:35;;;;;;;;;;;22.20;68.40;;;21.62;62.90;96471.25;4263367;33;19925;-85
2022/08/30 06:01:04;;;;;;;;;;;22.20;68.50;;;21.64;63.02;96471.69;4239687;33;20137;-85
2022/08/30 06:03:32;;;;;;;;;;;22.20;68.50;;;21.63;63.19;96475.63;4239397;33;19909;-85
2022/08/30 06:06:02;;;;;;;;;;;22.20;68.70;;;21.63;63.04;96464.50;4215391;33;20025;-85
2022/08/30 06:08:30;;;;;;;;;;;22.20;68.70;;;21.63;63.55;96464.50;4196043;33;19979;-85
2022/08/30 06:10:59;;;;;;;;;;;22.20;68.80;;;21.65;63.30;96473.34;4188080;33;19939;-85
2022/08/30 06:13:30;;;;;;;;;;;22.30;69.00;;;21.65;63.22;96462.19;4210981;33;20296;-85
2022/08/30 06:15:59;;;;;;;;;;;22.30;69.20;;;21.71;63.39;96471.16;4187286;33;19999;-85
2022/08/30 06:18:27;;;;;;;;;;;22.30;69.10;;;21.76;63.39;96473.78;4211002;33;20125;-86
2022/08/30 06:20:56;;;;;;;;;;;22.30;68.90;;;21.81;63.08;96469.97;4211070;33;19910;-85
2022/08/30 06:23:24;;;;;;;;;;;22.40;68.70;;;21.87;63.09;96479.78;4210942;33;20129;-85
2022/08/30 06:25:53;;;;;;;;;;;22.40;68.60;;;21.93;62.83;96467.25;4186992;33;19910;-85
2022/08/30 06:28:22;;;;;;;;;;;22.50;68.40;;;22.00;62.89;96470.34;4210833;33;20086;-85
2022/08/30 06:30:52;;;;;;;;;;;22.60;68.00;;;22.09;62.19;96469.47;4187693;33;20066;-85
2022/08/30 06:33:21;;;;;;;;;;;22.60;67.70;;;22.16;61.90;96475.28;4187415;33;20128;-85
2022/08/30 06:35:49;;;;;;;;;;;22.70;67.60;;;22.23;61.98;96470.81;4186970;33;20014;-85
2022/08/30 06:38:18;;;;;;;;;;;22.80;67.30;;;22.29;61.59;96470.63;4187506;33;19957;-85
2022/08/30 06:40:47;;;;;;;;;;;22.80;67.20;;;22.35;61.51;96472.03;4210703;33;19903;-85
2022/08/30 06:43:15;;;;;;;;;;;22.90;67.00;;;22.40;61.40;96468.25;4187396;33;20145;-85
2022/08/30 06:45:44;;;;;;;;;;;22.90;66.90;;;22.43;61.08;96473.16;4233454;33;19918;-85
2022/08/30 06:48:14;;;;;;;;;;;23.00;66.70;;;22.47;61.43;96479.69;4210708;33;19909;-84
2022/08/30 06:50:43;;;;;;;;;;;23.00;66.60;;;22.51;61.56;96469.47;4210729;33;20144;-85
2022/08/30 06:53:12;;;;;;;;;;;23.00;66.50;;;22.54;61.11;96468.78;4210295;33;19957;-84
2022/08/30 06:55:40;;;;;;;;;;;23.10;66.50;;;22.56;61.27;96474.84;4186820;33;20160;-84
2022/08/30 06:58:09;;;;;;;;;;;23.10;66.50;;;22.60;61.11;96477.75;4187266;33;19902;-85
2022/08/30 07:00:40;;;;;;;;;;;23.10;66.40;;;22.62;61.13;96476.28;4210573;33;19902;-84
2022/08/30 07:03:09;;;;;;;;;;;23.20;66.40;;;22.64;60.84;96465.59;4187245;33;19909;-85
2022/08/30 07:05:39;;;;;;;;;;;23.20;66.20;;;22.66;60.78;96471.63;4186886;33;19902;-84
2022/08/30 07:08:07;;;;;;;;;;;23.20;66.30;;;22.68;60.80;96474.06;4209996;33;20388;-85
2022/08/30 07:10:39;;;;;;;;;;;23.20;66.10;;;22.70;60.48;96473.72;4187233;33;20252;-84
2022/08/30 07:13:08;;;;;;;;;;;23.20;66.00;;;22.71;60.62;96467.81;4233591;33;19906;-84
2022/08/30 07:15:36;;;;;;;;;;;23.20;66.00;;;22.72;60.59;96465.81;4209612;33;19902;-84
2022/08/30 07:20:52;;;;;;;;;;;23.30;66.10;;;22.76;60.81;96475.16;4210115;33;19902;-84
2022/08/30 07:23:21;;;;;;;;;;;23.30;66.10;;;22.78;60.78;96473.66;4186898;33;19902;-85
2022/08/30 07:25:50;;;;;;;;;;;23.30;66.00;;;22.79;60.71;96468.88;4186355;33;20088;-85
2022/08/30 07:28:19;;;;;;;;;;;23.30;66.00;;;22.81;60.48;96472.13;4186982;33;20128;-84
2022/08/30 07:30:47;;;;;;;;;;;23.30;65.90;;;22.83;60.38;96475.41;4210266;33;19909;-85
2022/08/30 07:33:16;;;;;;;;;;;23.30;65.90;;;22.86;60.30;96474.72;4209941;33;19935;-84
2022/08/30 07:35:44;;;;;;;;;;;23.40;65.80;;;22.87;60.25;96473.56;4209097;33;19910;-85
2022/08/30 07:38:14;;;;;;;;;;;23.40;65.80;;;22.90;60.38;96484.03;4233177;33;20136;-84
2022/08/30 07:40:43;;;;;;;;;;;23.40;65.70;;;22.92;60.43;96480.91;4210104;33;19962;-84
2022/08/30 07:43:12;;;;;;;;;;;23.40;65.70;;;22.94;60.01;96478.56;4209875;33;19935;-85
2022/08/30 07:45:40;;;;;;;;;;;23.50;65.70;;;22.96;60.32;96468.69;4209297;33;19909;-84
2022/08/30 07:48:10;;;;;;;;;;;23.50;65.80;;;22.98;60.42;96471.13;4209799;33;20252;-84
2022/08/30 07:50:39;;;;;;;;;;;23.50;65.70;;;22.99;60.20;96469.97;4186585;33;20141;-84
2022/08/30 07:53:07;;;;;;;;;;;23.50;65.70;;;23.01;60.13;96470.44;4186450;33;19902;-84
2022/08/30 07:55:37;;;;;;;;;;;23.50;65.70;;;23.02;60.36;96474.88;4209205;33;20003;-84
2022/08/30 07:58:06;;;;;;;;;;;23.50;65.70;;;23.04;60.38;96468.94;4186393;33;19902;-84
2022/08/30 08:00:34;;;;;;;;;;;23.50;65.60;;;23.03;60.16;96467.31;4186609;33;19902;-83
2022/08/30 08:03:06;;;;;;;;;;;23.50;65.50;;;23.04;59.92;96469.75;4209712;33;19902;-84
2022/08/30 08:05:38;;;;;;;;;;;23.50;65.50;;;23.05;60.16;96470.56;4185962;33;19910;-83
2022/08/30 08:08:07;;;;;;;;;;;23.50;65.60;;;23.05;60.39;96464.97;4209720;33;20052;-84
2022/08/30 08:10:37;;;;;;;;;;;23.60;65.60;;;23.06;60.21;96472.19;4186433;33;19902;-83
2022/08/30 08:13:06;;;;;;;;;;;23.60;65.60;;;23.05;60.09;96476.16;4209641;33;19902;-84
2022/08/30 08:15:35;;;;;;;;;;;23.60;65.60;;;23.07;60.23;96468.25;4209108;33;19902;-84
2022/08/30 08:18:04;;;;;;;;;;;23.50;65.60;;;23.06;60.00;96469.41;4186281;33;19995;-84
2022/08/30 08:20:33;;;;;;;;;;;23.60;65.60;;;23.06;60.30;96469.41;4186312;33;19908;-84
2022/08/30 08:23:02;;;;;;;;;;;23.60;65.60;;;23.04;60.02;96475.34;4209601;33;19980;-83
2022/08/30 08:25:30;;;;;;;;;;;23.60;65.60;;;23.02;59.99;96465.69;4208936;33;20127;-84
2022/08/30 08:28:00;;;;;;;;;;;23.60;65.60;;;23.02;60.44;96476.84;4209760;33;20079;-83
2022/08/30 08:30:29;;;;;;;;;;;23.50;65.60;;;23.01;60.21;96475.22;4186437;33;20217;-83
2022/08/30 08:32:57;;;;;;;;;;;23.50;65.60;;;23.01;60.26;96478.00;4209320;33;19902;-83
2022/08/30 08:35:26;;;;;;;;;;;23.50;65.70;;;22.98;60.68;96493.47;4186134;33;20124;-84
2022/08/30 08:37:55;;;;;;;;;;;23.50;65.80;;;22.97;60.21;96487.06;4186233;33;20172;-84
2022/08/30 08:40:23;;;;;;;;;;;23.50;65.80;;;22.93;60.84;96494.50;4232827;33;20105;-84
2022/08/30 08:43:03;;;;;;;;;;;23.50;65.90;;;22.90;60.99;96497.16;4186225;33;20365;-84
2022/08/30 08:45:48;;;;;;;;;;;23.50;65.90;;;22.83;60.74;96504.16;4208742;33;20003;-84
2022/08/30 08:48:29;;;;;;;;;;;23.40;66.00;;;22.78;61.20;96500.75;4187367;33;19902;-83
2022/08/30 08:53:48;;;;;;;;;;;23.40;66.50;;;22.75;61.06;96498.63;4211700;33;19985;-84
2022/08/30 08:56:18;;;;;;;;;;;23.30;66.50;;;22.73;61.55;96500.94;4187953;33;19902;-83
2022/08/30 08:58:50;;;;;;;;;;;23.30;66.60;;;22.74;61.45;96499.78;4211566;33;19902;-84
2022/08/30 09:01:20;;;;;;;;;;;23.30;66.70;;;22.75;61.64;96501.44;4211803;33;19915;-84
2022/08/30 09:03:49;;;;;;;;;;;23.30;66.70;;;22.76;61.33;96503.06;4211573;33;19909;-84
2022/08/30 09:06:51;;;;;;;;;;;23.30;66.70;;;22.76;61.27;96503.88;4235452;33;19902;-83
2022/08/30 09:09:23;;;;;;;;;;;23.30;66.70;;;22.76;61.28;96503.06;4206313;33;19909;-84
2022/08/30 09:11:52;;;;;;;;;;;23.30;66.70;;;22.75;61.24;96496.66;4236023;33;20014;-83
2022/08/30 09:14:25;;;;;;;;;;;23.30;66.70;;;22.76;61.64;96503.06;4235782;33;19903;-83
2022/08/30 09:17:04;;;;;;;;;;;23.30;66.70;;;22.76;61.31;96497.47;4210874;33;20152;-83
2022/08/30 09:19:41;;;;;;;;;;;23.30;66.70;;;22.75;61.54;96496.66;4211345;33;19902;-84
2022/08/30 09:22:21;;;;;;;;;;;23.30;66.70;;;22.74;61.29;96488.63;4188161;33;19902;-83
2022/08/30 09:24:52;;;;;;;;;;;23.30;66.70;;;22.72;61.49;96497.31;4211391;33;20148;-83
2022/08/30 09:27:24;;;;;;;;;;;23.30;66.70;;;22.71;61.53;96486.53;4234439;33;19902;-84
2022/08/30 09:30:01;;;;;;;;;;;23.30;66.80;;;22.70;61.61;96488.50;4188291;33;19977;-84
2022/08/30 09:32:36;;;;;;;;;;;23.30;66.80;;;22.70;61.62;96487.69;4211254;33;20206;-83
2022/08/30 09:35:07;;;;;;;;;;;23.30;66.80;;;22.71;61.51;96478.97;4211149;33;19902;-83
2022/08/30 09:37:39;;;;;;;;;;;23.30;66.90;;;22.70;61.82;96470.94;4210785;33;20492;-83
2022/08/30 09:40:15;;;;;;;;;;;23.30;66.90;;;22.70;61.90;96465.34;4211353;33;20210;-84
2022/08/30 09:42:59;;;;;;;;;;;23.30;66.90;;;22.68;61.79;96458.13;4234811;33;20218;-83
2022/08/30 09:45:35;;;;;;;;;;;23.30;66.90;;;22.68;61.54;96455.34;4187983;33;19902;-83
2022/08/30 09:48:29;;;;;;;;;;;23.30;66.90;;;22.66;62.21;96457.66;4188209;33;19971;-83
2022/08/30 09:51:13;;;;;;;;;;;23.30;66.90;;;22.66;61.89;96457.66;4188506;33;20237;-83
2022/08/30 09:53:47;;;;;;;;;;;23.30;67.00;;;22.65;61.91;96452.44;4211418;33;20149;-83
2022/08/30 09:56:20;;;;;;;;;;;23.30;67.00;;;22.63;61.66;96450.00;4235673;33;19909;-83
2022/08/30 09:59:00;;;;;;;;;;;23.30;67.00;;;22.62;61.62;96445.56;4211780;33;19909;-83
2022/08/30 10:01:32;;;;;;;;;;;23.30;67.10;;;22.61;61.69;96449.53;4212073;33;20155;-83
2022/08/30 10:04:08;;;;;;;;;;;23.20;67.00;;;22.60;61.90;96445.09;4236749;33;20204;-83
2022/08/30 10:06:40;;;;;;;;;;;23.20;67.20;;;22.60;61.92;96444.25;4253169;33;19902;-83
2022/08/30 10:09:17;;;;;;;;;;;23.20;67.20;;;22.58;62.02;96450.19;4213012;33;19909;-83
2022/08/30 10:11:50;;;;;;;;;;;23.20;67.30;;;22.57;62.02;96447.75;4190209;33;19909;-82
2022/08/30 10:14:48;;;;;;;;;;;23.20;67.40;;;22.56;62.13;96449.72;4190019;33;20129;-83
2022/08/30 10:17:27;;;;;;;;;;;23.20;67.40;;;22.55;62.21;96430.53;4189338;33;19984;-82
2022/08/30 10:20:04;;;;;;;;;;;23.20;67.50;;;22.55;62.18;96444.50;4240972;28;19909;-87
2022/08/30 10:22:35;;;;;;;;;;;23.10;67.50;;;22.54;62.08;96435.28;4220294;33;20420;-84
2022/08/30 10:25:10;;;;;;;;;;;23.20;67.60;;;22.53;62.23;96433.66;4182938;33;19910;-84
2022/08/30 10:27:43;;;;;;;;;;;23.20;67.60;;;22.53;62.25;96430.88;4229022;33;20074;-85
2022/08/30 10:34:31;;;;;;;;;;;23.10;67.60;;;22.50;62.29;96420.41;4198989;33;19970;-84
2022/08/30 10:37:04;;;;;;;;;;;23.10;67.70;;;22.48;62.69;96415.16;4205486;33;19918;-85
2022/08/30 10:39:37;;;;;;;;;;;23.10;67.80;;;22.48;62.59;96408.78;4182626;33;20093;-85
2022/08/30 10:42:10;;;;;;;;;;;23.10;67.90;;;22.46;62.67;96403.53;4210174;33;19903;-85
2022/08/30 10:44:43;;;;;;;;;;;23.10;67.90;;;22.47;62.32;96407.16;4210394;33;19902;-85
2022/08/30 10:51:26;;;;;;;;;;;23.10;67.90;;;22.49;62.57;96393.69;4216568;33;20125;-85
2022/08/30 10:53:57;;;;;;;;;;;23.10;67.80;;;22.48;62.71;96397.63;4233288;33;20044;-85
2022/08/30 10:56:28;;;;;;;;;;;23.10;67.90;;;22.48;62.47;96392.84;4233389;33;20139;-84
2022/08/30 10:58:58;;;;;;;;;;;23.10;67.90;;;22.49;62.35;96388.09;4210475;33;20076;-84
2022/08/30 11:01:37;;;;;;;;;;;23.10;67.90;;;22.47;62.63;96387.63;4234643;33;19983;-84
2022/08/30 11:04:47;;;;;;;;;;;23.10;67.80;;;22.48;62.23;96387.28;4210333;33;19902;-84
2022/08/30 11:07:27;;;;;;;;;;;23.10;67.80;;;22.48;62.42;96378.91;4204374;33;19986;-84
2022/08/30 11:10:21;;;;;;;;;;;23.10;67.90;;;22.47;62.60;96382.84;4209615;33;19913;-83
2022/08/30 11:12:58;;;;;;;;;;;23.00;67.80;;;22.47;62.40;96376.47;4233780;33;20376;-84
2022/08/30 11:15:30;;;;;;;;;;;23.10;68.00;;;22.47;62.48;96382.03;4233310;33;20084;-84
2022/08/30 11:18:00;;;;;;;;;;;23.10;68.00;;;22.45;62.53;96376.00;4210003;33;20130;-84
2022/08/30 11:20:41;;;;;;;;;;;23.10;68.10;;;22.43;62.55;96367.97;4257037;33;19902;-84
2022/08/30 11:23:30;;;;;;;;;;;23.00;68.00;;;22.42;62.97;96369.13;4233616;33;19906;-84
2022/08/30 11:26:01;;;;;;;;;;;23.00;68.10;;;22.41;62.95;96369.44;4256960;33;19909;-84
2022/08/30 11:29:05;;;;;;;;;;;23.00;68.10;;;22.41;63.00;96375.00;4233459;33;20029;-85
2022/08/30 11:31:39;;;;;;;;;;;23.00;68.10;;;22.41;63.07;96366.63;4233541;33;20046;-84
2022/08/30 11:34:08;;;;;;;;;;;23.00;68.30;;;22.40;63.15;96367.81;4234254;33;20155;-84
2022/08/30 11:37:07;;;;;;;;;;;23.00;68.30;;;22.40;62.82;96354.69;4232719;33;20098;-84
2022/08/30 11:39:58;;;;;;;;;;;23.00;68.40;;;22.41;62.85;96353.56;4233177;33;19956;-84
2022/08/30 11:42:31;;;;;;;;;;;23.00;68.50;;;22.40;63.21;96346.31;4233333;33;19909;-85
2022/08/30 11:45:46;;;;;;;;;;;23.00;68.50;;;22.41;62.99;96341.53;4234123;33;19952;-85
2022/08/30 11:48:53;;;;;;;;;;;23.00;68.50;;;22.41;63.33;96341.53;4198620;33;19903;-84
2022/08/30 11:51:52;;;;;;;;;;;23.00;68.60;;;22.41;63.38;96344.31;4228309;33;19903;-84
2022/08/30 11:54:31;;;;;;;;;;;23.00;68.70;;;22.37;63.48;96336.66;4181804;33;19903;-85